Stephenville, Canada
Current Conditions -  °F | °C
As of 5:00 PM on Thursday 29 Jan 2015 (Local Time) from CYJT Reporting Station
Broken Clouds Broken Clouds  
Wind Chill: 13°   Ceiling: 2500
Heat Index: 21°   Visibility: 15mi
Dew Point: 18°   Wind: 7mph
Humidity: 86%   Direction: 350°N
Pressure: 30.15"   Gusts: NA
Location:  48.55°N, 58.58°W
Report Text: CYJT 292000Z 35006KT 15SM BKN025 M06/M08 A3015 RMK SC6 SLP212
Loading
Personal Weather Stations






























Interactive Weather Map New forecast layout! Learn more

10-Day Weather Forecast

Advertisements
Track Severe Weather on mobile